Time,TemperatureF,DewpointF,PressureIn,WindDirection,WindDirectionDegrees,WindSpeedMPH,WindSpeedGustMPH,Humidity,HourlyPrecipIn,Conditions,Clouds,dailyrainin,SolarRadiationWatts/m^2,SoftwareType,DateUTC
2013-05-13 00:00:00,50.3,34.8,29.91,SE,146,0.0,1.0,55,0.00,,OVC,0.00,0.00,VWS V14.00,2013-05-13 04:00:00,
2013-05-13 00:01:00,50.1,34.6,29.91,SE,146,0.0,0.0,55,0.00,,OVC,0.00,0.00,VWS V14.00,2013-05-13 04:01:00,
2013-05-13 00:02:00,50.0,34.5,29.92,SE,146,0.0,0.0,55,0.00,,OVC,0.00,0.00,VWS V14.00,2013-05-13 04:02:00,
2013-05-13 00:03:00,50.0,34.0,29.91,SE,146,0.0,1.0,54,0.00,,OVC,0.00,0.00,VWS V14.00,2013-05-13 04:03:00,
2013-05-13 00:08:00,49.7,34.7,29.92,SE,146,0.0,1.0,56,0.00,,OVC,0.00,0.00,VWS V14.00,2013-05-13 04:08:00,
2013-05-13 00:14:00,49.5,35.8,29.92,SE,146,0.0,0.0,59,0.00,,OVC,0.00,0.00,VWS V14.00,2013-05-13 04:14:00,
2013-05-13 00:15:00,49.5,35.8,29.92,SE,146,0.0,1.0,59,0.00,,OVC,0.00,0.00,VWS V14.00,2013-05-13 04:15:00,
2013-05-13 00:19:00,49.2,35.9,29.92,SE,146,0.0,0.0,60,0.00,,OVC,0.00,0.00,VWS V14.00,2013-05-13 04:19:00,
2013-05-13 00:24:00,48.9,35.6,29.92,SE,146,0.0,0.0,60,0.00,,OVC,0.00,0.00,VWS V14.00,2013-05-13 04:24:00,
2013-05-13 00:29:00,48.6,35.4,29.92,SE,146,0.0,0.0,60,0.00,,OVC,0.00,0.00,VWS V14.00,2013-05-13 04:29:00,
2013-05-13 00:30:00,48.7,35.5,29.92,SE,146,0.0,0.0,60,0.00,,OVC,0.00,0.00,VWS V14.00,2013-05-13 04:30:00,
2013-05-13 00:34:00,48.3,35.1,29.92,SE,146,0.0,0.0,60,0.00,,OVC,0.00,0.00,VWS V14.00,2013-05-13 04:34:00,
2013-05-13 00:39:00,48.0,35.2,29.92,SE,146,0.0,0.0,61,0.00,,OVC,0.00,0.00,VWS V14.00,2013-05-13 04:39:00,
2013-05-13 00:44:00,47.7,35.7,29.92,SE,146,0.0,0.0,63,0.00,,OVC,0.00,0.00,VWS V14.00,2013-05-13 04:44:00,
2013-05-13 00:45:00,47.8,35.8,29.92,SE,146,0.0,0.0,63,0.00,,OVC,0.00,0.00,VWS V14.00,2013-05-13 04:45:00,
2013-05-13 00:49:00,47.5,35.1,29.92,SE,146,0.0,0.0,62,0.00,,OVC,0.00,0.00,VWS V14.00,2013-05-13 04:49:00,
2013-05-13 00:54:00,47.2,34.9,29.92,SE,146,0.0,0.0,62,0.00,,OVC,0.00,0.00,VWS V14.00,2013-05-13 04:54:00,
2013-05-13 00:59:00,47.0,34.7,29.92,SE,146,0.0,0.0,62,0.00,,OVC,0.00,0.00,VWS V14.00,2013-05-13 04:59:00,
2013-05-13 01:00:00,47.1,34.4,29.92,SE,146,0.0,0.0,61,0.00,,OVC,0.00,0.00,VWS V14.00,2013-05-13 05:00:00,
2013-05-13 01:04:00,46.9,34.6,29.93,SE,146,0.0,0.0,62,0.00,,OVC,0.00,0.00,VWS V14.00,2013-05-13 05:04:00,
2013-05-13 01:09:00,46.9,35.8,29.93,SE,146,0.0,0.0,65,0.00,,OVC,0.00,0.00,VWS V14.00,2013-05-13 05:09:00,
2013-05-13 01:15:00,46.8,36.4,29.93,SE,146,0.0,0.0,67,0.00,,OVC,0.00,0.00,VWS V14.00,2013-05-13 05:15:00,
2013-05-13 01:20:00,46.6,35.5,29.93,SE,146,0.0,0.0,65,0.00,,OVC,0.00,0.00,VWS V14.00,2013-05-13 05:20:00,
2013-05-13 01:25:00,46.3,35.6,29.93,SE,146,0.0,0.0,66,0.00,,OVC,0.00,0.00,VWS V14.00,2013-05-13 05:25:00,
2013-05-13 01:30:00,46.0,35.7,29.92,SE,146,0.0,0.0,67,0.00,,OVC,0.00,0.00,VWS V14.00,2013-05-13 05:30:00,
2013-05-13 01:35:00,45.6,36.0,29.92,SE,146,0.0,1.0,69,0.00,,OVC,0.00,0.00,VWS V14.00,2013-05-13 05:35:00,
2013-05-13 01:40:00,45.1,35.9,29.92,SE,146,0.0,1.0,70,0.00,,OVC,0.00,0.00,VWS V14.00,2013-05-13 05:40:00,
2013-05-13 01:45:00,44.8,35.6,29.92,SE,146,0.0,0.0,70,0.00,,OVC,0.00,0.00,VWS V14.00,2013-05-13 05:45:00,
2013-05-13 01:50:00,44.5,36.0,29.92,SE,146,0.0,0.0,72,0.00,,OVC,0.00,0.00,VWS V14.00,2013-05-13 05:50:00,
2013-05-13 01:55:00,44.2,35.8,29.92,SE,146,0.0,0.0,72,0.00,,OVC,0.00,0.00,VWS V14.00,2013-05-13 05:55:00,
2013-05-13 02:00:00,44.0,35.6,29.92,SE,146,0.0,0.0,72,0.00,,OVC,0.00,0.00,VWS V14.00,2013-05-13 06:00:00,
2013-05-13 02:06:00,43.8,35.7,29.92,SE,146,0.0,0.0,73,0.00,,OVC,0.00,0.00,VWS V14.00,2013-05-13 06:06:00,
2013-05-13 02:11:00,43.7,36.6,29.91,SE,146,0.0,0.0,76,0.00,,OVC,0.00,0.00,VWS V14.00,2013-05-13 06:11:00,
2013-05-13 02:15:00,43.5,36.5,29.91,SE,146,0.0,1.0,76,0.00,,OVC,0.00,0.00,VWS V14.00,2013-05-13 06:15:00,
2013-05-13 02:16:00,43.3,36.3,29.91,SE,146,0.0,0.0,76,0.00,,OVC,0.00,0.00,VWS V14.00,2013-05-13 06:16:00,
2013-05-13 02:21:00,43.0,36.0,29.91,SE,146,0.0,0.0,76,0.00,,OVC,0.00,0.00,VWS V14.00,2013-05-13 06:21:00,
2013-05-13 02:26:00,42.7,36.0,29.91,SE,146,0.0,0.0,77,0.00,,OVC,0.00,0.00,VWS V14.00,2013-05-13 06:26:00,
2013-05-13 02:31:00,42.4,36.0,29.91,SE,146,0.0,0.0,78,0.00,,OVC,0.00,0.00,VWS V14.00,2013-05-13 06:31:00,
2013-05-13 02:36:00,42.2,36.2,29.91,SE,146,0.0,0.0,79,0.00,,OVC,0.00,0.00,VWS V14.00,2013-05-13 06:36:00,
2013-05-13 02:41:00,42.3,36.6,29.91,SE,146,0.0,0.0,80,0.00,,OVC,0.00,0.00,VWS V14.00,2013-05-13 06:41:00,
2013-05-13 02:46:00,42.2,36.8,29.91,SE,146,0.0,0.0,81,0.00,,OVC,0.00,0.00,VWS V14.00,2013-05-13 06:46:00,
2013-05-13 02:51:00,42.2,36.8,29.92,SE,146,0.0,0.0,81,0.00,,OVC,0.00,0.00,VWS V14.00,2013-05-13 06:51:00,
2013-05-13 02:57:00,42.0,35.7,29.91,SE,146,0.0,0.0,78,0.00,,OVC,0.00,0.00,VWS V14.00,2013-05-13 06:57:00,
2013-05-13 03:02:00,41.9,35.9,29.92,SE,146,0.0,0.0,79,0.00,,OVC,0.00,0.00,VWS V14.00,2013-05-13 07:02:00,
2013-05-13 03:07:00,41.8,36.1,29.92,SE,146,0.0,0.0,80,0.00,,OVC,0.00,0.00,VWS V14.00,2013-05-13 07:07:00,
2013-05-13 03:12:00,41.7,36.3,29.92,SE,146,0.0,0.0,81,0.00,,OVC,0.00,0.00,VWS V14.00,2013-05-13 07:12:00,
2013-05-13 03:17:00,41.5,36.4,29.92,SE,146,0.0,0.0,82,0.00,,OVC,0.00,0.00,VWS V14.00,2013-05-13 07:17:00,
2013-05-13 03:22:00,41.3,36.5,29.92,SE,146,0.0,0.0,83,0.00,,OVC,0.00,0.00,VWS V14.00,2013-05-13 07:22:00,
2013-05-13 03:27:00,41.0,36.5,29.92,SE,146,0.0,0.0,84,0.00,,OVC,0.00,0.00,VWS V14.00,2013-05-13 07:27:00,
2013-05-13 03:32:00,40.8,36.3,29.92,SE,146,0.0,0.0,84,0.00,,OVC,0.00,0.00,VWS V14.00,2013-05-13 07:32:00,
2013-05-13 03:37:00,40.8,36.7,29.92,SE,146,0.0,0.0,85,0.00,,OVC,0.00,0.00,VWS V14.00,2013-05-13 07:37:00,
2013-05-13 03:43:00,40.8,36.7,29.92,SE,146,0.0,0.0,85,0.00,,OVC,0.00,0.00,VWS V14.00,2013-05-13 07:43:00,
2013-05-13 03:48:00,40.9,36.8,29.92,SE,146,0.0,0.0,85,0.00,,OVC,0.00,0.00,VWS V14.00,2013-05-13 07:48:00,
2013-05-13 03:53:00,40.8,36.7,29.92,SE,146,0.0,0.0,85,0.00,,OVC,0.00,0.00,VWS V14.00,2013-05-13 07:53:00,
2013-05-13 03:58:00,40.7,36.2,29.92,SE,146,0.0,0.0,84,0.00,,OVC,0.00,0.00,VWS V14.00,2013-05-13 07:58:00,
2013-05-13 04:03:00,40.6,36.2,29.92,SE,146,0.0,0.0,84,0.00,,OVC,0.00,0.00,VWS V14.00,2013-05-13 08:03:00,
2013-05-13 04:08:00,40.6,36.5,29.92,SE,146,0.0,0.0,85,0.00,,OVC,0.00,0.00,VWS V14.00,2013-05-13 08:08:00,
2013-05-13 04:13:00,40.6,36.5,29.92,SE,146,0.0,0.0,85,0.00,,OVC,0.00,0.00,VWS V14.00,2013-05-13 08:13:00,
2013-05-13 04:18:00,40.7,36.2,29.92,SE,146,0.0,0.0,84,0.00,,OVC,0.00,0.00,VWS V14.00,2013-05-13 08:18:00,
2013-05-13 04:23:00,40.7,36.2,29.92,SE,146,0.0,0.0,84,0.00,,OVC,0.00,0.00,VWS V14.00,2013-05-13 08:23:00,
2013-05-13 04:28:00,40.6,36.2,29.92,SE,146,0.0,0.0,84,0.00,,OVC,0.00,0.00,VWS V14.00,2013-05-13 08:28:00,
2013-05-13 04:34:00,40.3,35.9,29.92,SE,146,0.0,0.0,84,0.00,,OVC,0.00,0.00,VWS V14.00,2013-05-13 08:34:00,
2013-05-13 04:39:00,40.1,36.0,29.92,SE,146,0.0,0.0,85,0.00,,OVC,0.00,0.00,VWS V14.00,2013-05-13 08:39:00,
2013-05-13 04:44:00,40.0,35.9,29.92,SE,146,0.0,0.0,85,0.00,,OVC,0.00,0.00,VWS V14.00,2013-05-13 08:44:00,
2013-05-13 04:49:00,40.0,36.2,29.92,SE,146,0.0,0.0,86,0.00,,OVC,0.00,0.00,VWS V14.00,2013-05-13 08:49:00,
2013-05-13 04:54:00,39.9,35.8,29.92,SE,146,0.0,0.0,85,0.00,,OVC,0.00,0.00,VWS V14.00,2013-05-13 08:54:00,
2013-05-13 04:59:00,39.8,36.0,29.93,SE,146,0.0,0.0,86,0.00,,OVC,0.00,0.00,VWS V14.00,2013-05-13 08:59:00,
2013-05-13 05:04:00,39.6,35.8,29.93,SE,146,0.0,0.0,86,0.00,,OVC,0.00,0.00,VWS V14.00,2013-05-13 09:04:00,
2013-05-13 05:09:00,39.5,35.7,29.93,SE,146,0.0,0.0,86,0.00,,OVC,0.00,0.00,VWS V14.00,2013-05-13 09:09:00,
2013-05-13 05:14:00,39.3,35.5,29.93,SE,146,0.0,0.0,86,0.00,,OVC,0.00,0.00,VWS V14.00,2013-05-13 09:14:00,
2013-05-13 05:19:00,39.4,35.9,29.94,SE,146,0.0,0.0,87,0.00,,OVC,0.00,0.00,VWS V14.00,2013-05-13 09:19:00,
2013-05-13 05:25:00,39.5,35.7,29.94,SE,146,0.0,0.0,86,0.00,,OVC,0.00,0.00,VWS V14.00,2013-05-13 09:25:00,
2013-05-13 05:30:00,39.6,35.8,29.94,SE,146,0.0,0.0,86,0.00,,OVC,0.00,0.00,VWS V14.00,2013-05-13 09:30:00,
2013-05-13 05:35:00,39.6,35.8,29.94,SE,146,0.0,0.0,86,0.00,,OVC,0.00,0.00,VWS V14.00,2013-05-13 09:35:00,
2013-05-13 05:40:00,39.7,35.9,29.94,SE,146,0.0,0.0,86,0.00,,OVC,0.00,0.00,VWS V14.00,2013-05-13 09:40:00,
2013-05-13 05:45:00,40.0,35.9,29.94,SE,146,0.0,0.0,85,0.00,,OVC,0.00,0.00,VWS V14.00,2013-05-13 09:45:00,
2013-05-13 05:50:00,40.2,36.1,29.94,SE,146,0.0,0.0,85,0.00,,OVC,0.00,0.00,VWS V14.00,2013-05-13 09:50:00,
2013-05-13 05:55:00,40.2,35.8,29.95,SE,146,0.0,0.0,84,0.00,,OVC,0.00,0.00,VWS V14.00,2013-05-13 09:55:00,
2013-05-13 06:00:00,40.2,35.8,29.95,SE,146,0.0,0.0,84,0.00,,OVC,0.00,5.00,VWS V14.00,2013-05-13 10:00:00,
2013-05-13 06:05:00,40.2,35.8,29.95,SE,146,0.0,0.0,84,0.00,,OVC,0.00,7.00,VWS V14.00,2013-05-13 10:05:00,
2013-05-13 06:10:00,40.1,35.4,29.95,SE,146,0.0,0.0,83,0.00,,OVC,0.00,11.00,VWS V14.00,2013-05-13 10:10:00,
2013-05-13 06:16:00,40.1,35.7,29.95,SE,146,0.0,0.0,84,0.00,,OVC,0.00,14.00,VWS V14.00,2013-05-13 10:16:00,
2013-05-13 06:21:00,40.1,35.7,29.95,SE,146,0.0,0.0,84,0.00,,OVC,0.00,12.00,VWS V14.00,2013-05-13 10:21:00,
2013-05-13 06:26:00,40.3,35.9,29.95,SE,146,0.0,0.0,84,0.00,,OVC,0.00,16.00,VWS V14.00,2013-05-13 10:26:00,
2013-05-13 06:31:00,40.4,35.7,29.96,SE,146,0.0,0.0,83,0.00,,OVC,0.00,25.00,VWS V14.00,2013-05-13 10:31:00,
2013-05-13 06:36:00,40.7,36.2,29.96,SE,146,0.0,0.0,84,0.00,,OVC,0.00,21.00,VWS V14.00,2013-05-13 10:36:00,
2013-05-13 06:41:00,40.9,36.5,29.96,SE,146,0.0,0.0,84,0.00,,OVC,0.00,28.00,VWS V14.00,2013-05-13 10:41:00,
2013-05-13 06:46:00,41.1,36.3,29.97,SSE,147,0.0,1.0,83,0.00,,OVC,0.00,28.00,VWS V14.00,2013-05-13 10:46:00,
2013-05-13 06:51:00,41.5,36.1,29.97,SSE,147,0.0,1.0,81,0.00,,OVC,0.00,30.00,VWS V14.00,2013-05-13 10:51:00,
2013-05-13 06:56:00,41.8,36.4,29.97,SSE,147,0.0,1.0,81,0.00,,OVC,0.00,32.00,VWS V14.00,2013-05-13 10:56:00,
2013-05-13 07:02:00,42.2,36.5,29.97,SSE,147,0.0,1.0,80,0.00,,OVC,0.00,33.00,VWS V14.00,2013-05-13 11:02:00,
2013-05-13 07:07:00,42.7,37.3,29.97,SSE,147,0.0,1.0,81,0.00,,OVC,0.00,35.00,VWS V14.00,2013-05-13 11:07:00,
2013-05-13 07:12:00,43.0,37.6,29.97,SSE,147,0.0,1.0,81,0.00,,OVC,0.00,39.00,VWS V14.00,2013-05-13 11:12:00,
2013-05-13 07:17:00,43.4,38.0,29.97,SSE,147,0.0,0.0,81,0.00,,OVC,0.00,44.00,VWS V14.00,2013-05-13 11:17:00,
2013-05-13 07:22:00,43.8,38.0,29.97,SSE,147,0.0,1.0,80,0.00,,OVC,0.00,51.00,VWS V14.00,2013-05-13 11:22:00,
2013-05-13 07:27:00,44.2,38.4,29.97,SSE,147,1.0,1.0,80,0.00,,OVC,0.00,54.00,VWS V14.00,2013-05-13 11:27:00,
2013-05-13 07:32:00,44.7,38.6,29.98,SSE,147,0.0,0.0,79,0.00,,OVC,0.00,76.00,VWS V14.00,2013-05-13 11:32:00,
2013-05-13 07:37:00,45.2,37.8,29.98,South,190,0.0,2.0,75,0.00,,OVC,0.00,84.00,VWS V14.00,2013-05-13 11:37:00,
2013-05-13 07:42:00,46.0,38.5,29.98,SSE,159,0.0,2.0,75,0.00,,OVC,0.00,84.00,VWS V14.00,2013-05-13 11:42:00,
2013-05-13 07:47:00,46.7,37.8,29.98,East,89,0.0,3.0,71,0.00,,OVC,0.00,95.00,VWS V14.00,2013-05-13 11:47:00,
2013-05-13 07:52:00,47.6,38.0,29.98,WSW,246,0.0,3.0,69,0.00,,OVC,0.00,125.00,VWS V14.00,2013-05-13 11:52:00,
2013-05-13 07:57:00,48.2,37.0,29.98,WSW,244,0.0,3.0,65,0.00,,OVC,0.00,120.00,VWS V14.00,2013-05-13 11:57:00,
2013-05-13 08:03:00,49.0,37.0,29.98,SSW,212,0.0,2.0,63,0.00,,OVC,0.00,79.00,VWS V14.00,2013-05-13 12:03:00,
2013-05-13 08:08:00,49.6,35.9,29.98,South,189,0.0,2.0,59,0.00,,OVC,0.00,62.00,VWS V14.00,2013-05-13 12:08:00,
2013-05-13 08:13:00,50.0,35.4,29.98,SW,221,0.0,2.0,57,0.00,,OVC,0.00,81.00,VWS V14.00,2013-05-13 12:13:00,
2013-05-13 08:18:00,50.4,35.8,29.98,ESE,115,0.0,4.0,57,0.00,,OVC,0.00,139.00,VWS V14.00,2013-05-13 12:18:00,
2013-05-13 08:23:00,50.7,35.6,29.99,West,266,0.0,4.0,56,0.00,,OVC,0.00,88.00,VWS V14.00,2013-05-13 12:23:00,
2013-05-13 08:28:00,50.9,33.4,29.99,West,271,0.0,0.0,51,0.00,,OVC,0.00,121.00,VWS V14.00,2013-05-13 12:28:00,
2013-05-13 08:33:00,51.1,35.0,29.99,West,272,0.0,1.0,54,0.00,,OVC,0.00,132.00,VWS V14.00,2013-05-13 12:33:00,
2013-05-13 08:38:00,51.3,33.3,29.99,WSW,241,0.0,3.0,50,0.00,,OVC,0.00,104.00,VWS V14.00,2013-05-13 12:38:00,
2013-05-13 08:43:00,51.4,33.4,29.99,NW,310,0.0,1.0,50,0.00,,OVC,0.00,107.00,VWS V14.00,2013-05-13 12:43:00,
2013-05-13 08:48:00,51.5,33.0,29.99,NW,310,0.0,1.0,49,0.00,,OVC,0.00,84.00,VWS V14.00,2013-05-13 12:48:00,
2013-05-13 08:53:00,51.7,33.2,29.99,NNW,332,0.0,1.0,49,0.00,,OVC,0.00,107.00,VWS V14.00,2013-05-13 12:53:00,
2013-05-13 08:58:00,51.8,34.3,29.99,WNW,297,1.0,4.0,51,0.00,,OVC,0.00,132.00,VWS V14.00,2013-05-13 12:58:00,
2013-05-13 09:03:00,52.0,32.9,29.99,West,281,0.0,4.0,48,0.00,,OVC,0.00,220.00,VWS V14.00,2013-05-13 13:03:00,
2013-05-13 09:09:00,52.1,33.0,29.99,WNW,300,1.0,6.0,48,0.00,,OVC,0.00,127.00,VWS V14.00,2013-05-13 13:09:00,
2013-05-13 09:14:00,52.3,33.2,29.99,NW,325,0.0,1.0,48,0.00,,OVC,0.00,220.00,VWS V14.00,2013-05-13 13:14:00,
2013-05-13 09:19:00,52.5,33.4,29.98,WNW,299,0.0,4.0,48,0.00,,OVC,0.00,371.00,VWS V14.00,2013-05-13 13:19:00,
2013-05-13 09:24:00,52.8,33.7,29.99,West,267,1.0,4.0,48,0.00,,OVC,0.00,415.00,VWS V14.00,2013-05-13 13:24:00,
2013-05-13 09:29:00,53.0,33.3,29.99,NNE,17,1.0,1.0,47,0.00,,OVC,0.00,712.00,VWS V14.00,2013-05-13 13:29:00,
2013-05-13 09:34:00,53.4,34.7,29.98,West,273,0.0,6.0,49,0.00,,OVC,0.00,691.00,VWS V14.00,2013-05-13 13:34:00,
2013-05-13 09:39:00,54.2,35.5,29.98,WSW,243,3.0,6.0,49,0.00,,OVC,0.00,548.00,VWS V14.00,2013-05-13 13:39:00,
2013-05-13 09:44:00,54.8,34.4,29.98,SE,144,0.0,4.0,46,0.00,,OVC,0.00,763.00,VWS V14.00,2013-05-13 13:44:00,
2013-05-13 09:49:00,55.2,34.2,29.98,NW,314,0.0,5.0,45,0.00,,OVC,0.00,803.00,VWS V14.00,2013-05-13 13:49:00,
2013-05-13 09:54:00,55.7,35.8,29.98,NNW,336,4.0,5.0,47,0.00,,OVC,0.00,830.00,VWS V14.00,2013-05-13 13:54:00,
2013-05-13 10:00:00,55.9,33.2,29.98,North,355,1.0,6.0,42,0.00,,OVC,0.00,362.00,VWS V14.00,2013-05-13 14:00:00,
2013-05-13 10:05:00,55.4,32.1,29.98,WNW,284,2.0,6.0,41,0.00,,OVC,0.00,459.00,VWS V14.00,2013-05-13 14:05:00,
2013-05-13 10:10:00,55.2,32.5,29.98,SE,134,4.0,6.0,42,0.00,,OVC,0.00,744.00,VWS V14.00,2013-05-13 14:10:00,
2013-05-13 10:15:00,55.5,34.0,29.98,South,176,0.0,6.0,44,0.00,,OVC,0.00,740.00,VWS V14.00,2013-05-13 14:15:00,
2013-05-13 10:20:00,56.1,33.3,29.98,WNW,301,0.0,6.0,42,0.00,,OVC,0.00,877.00,VWS V14.00,2013-05-13 14:20:00,
2013-05-13 10:25:00,56.4,32.4,29.98,ENE,70,0.0,7.0,40,0.00,,OVC,0.00,886.00,VWS V14.00,2013-05-13 14:25:00,
2013-05-13 10:30:00,56.7,33.3,29.98,SSW,200,1.0,2.0,41,0.00,,OVC,0.00,944.00,VWS V14.00,2013-05-13 14:30:00,
2013-05-13 10:35:00,57.1,34.8,29.98,SW,229,2.0,6.0,43,0.00,,OVC,0.00,905.00,VWS V14.00,2013-05-13 14:35:00,
2013-05-13 10:40:00,57.4,32.7,29.98,WNW,288,1.0,6.0,39,0.00,,OVC,0.00,953.00,VWS V14.00,2013-05-13 14:40:00,
2013-05-13 10:46:00,57.3,32.6,29.98,WNW,288,1.0,10.0,39,0.00,,OVC,0.00,230.00,VWS V14.00,2013-05-13 14:46:00,
2013-05-13 10:51:00,56.5,31.2,29.98,West,263,1.0,10.0,38,0.00,,OVC,0.00,919.00,VWS V14.00,2013-05-13 14:51:00,
2013-05-13 10:56:00,56.6,32.0,29.98,West,265,1.0,10.0,39,0.00,,OVC,0.00,940.00,VWS V14.00,2013-05-13 14:56:00,
2013-05-13 11:01:00,57.4,33.3,29.98,WNW,296,5.0,9.0,40,0.00,,OVC,0.00,954.00,VWS V14.00,2013-05-13 15:01:00,
2013-05-13 11:06:00,58.1,35.2,29.98,SSW,194,0.0,11.0,42,0.00,,OVC,0.00,1004.00,VWS V14.00,2013-05-13 15:06:00,
2013-05-13 11:11:00,58.5,32.3,29.98,NNW,334,1.0,11.0,37,0.00,,OVC,0.00,986.00,VWS V14.00,2013-05-13 15:11:00,
2013-05-13 11:16:00,58.2,31.4,29.98,West,261,0.0,8.0,36,0.00,,OVC,0.00,1037.00,VWS V14.00,2013-05-13 15:16:00,
2013-05-13 11:21:00,58.4,31.6,29.98,North,360,2.0,8.0,36,0.00,,OVC,0.00,1002.00,VWS V14.00,2013-05-13 15:21:00,
2013-05-13 11:26:00,58.6,31.8,29.98,NNE,33,0.0,8.0,36,0.00,,OVC,0.00,1021.00,VWS V14.00,2013-05-13 15:26:00,
2013-05-13 11:31:00,59.1,33.5,29.98,WSW,240,3.0,8.0,38,0.00,,OVC,0.00,1011.00,VWS V14.00,2013-05-13 15:31:00,
2013-05-13 11:37:00,59.5,32.5,29.98,West,267,2.0,8.0,36,0.00,,OVC,0.00,1027.00,VWS V14.00,2013-05-13 15:37:00,
2013-05-13 11:42:00,59.8,30.7,29.98,West,276,2.0,8.0,33,0.00,,OVC,0.00,1109.00,VWS V14.00,2013-05-13 15:42:00,
2013-05-13 11:47:00,59.7,29.8,29.98,WNW,285,0.0,8.0,32,0.00,,OVC,0.00,1109.00,VWS V14.00,2013-05-13 15:47:00,
2013-05-13 11:52:00,59.3,31.0,29.98,North,10,3.0,8.0,34,0.00,,OVC,0.00,1129.00,VWS V14.00,2013-05-13 15:52:00,
2013-05-13 11:57:00,58.9,32.0,29.98,NW,325,4.0,8.0,36,0.00,,OVC,0.00,1102.00,VWS V14.00,2013-05-13 15:57:00,
2013-05-13 12:02:00,58.8,30.5,29.98,NW,323,0.0,5.0,34,0.00,,OVC,0.00,1113.00,VWS V14.00,2013-05-13 16:02:00,
2013-05-13 12:07:00,59.0,30.0,29.97,West,265,0.0,7.0,33,0.00,,OVC,0.00,1151.00,VWS V14.00,2013-05-13 16:07:00,
2013-05-13 12:12:00,58.9,31.3,29.97,NW,310,1.0,7.0,35,0.00,,OVC,0.00,288.00,VWS V14.00,2013-05-13 16:12:00,
2013-05-13 12:17:00,58.6,29.6,29.97,NNW,348,6.0,9.0,33,0.00,,OVC,0.00,271.00,VWS V14.00,2013-05-13 16:17:00,
2013-05-13 12:22:00,58.0,29.8,29.98,SSW,203,3.0,9.0,34,0.00,,OVC,0.00,1132.00,VWS V14.00,2013-05-13 16:22:00,
2013-05-13 12:28:00,58.5,31.7,29.98,WNW,289,4.0,12.0,36,0.00,,OVC,0.00,1104.00,VWS V14.00,2013-05-13 16:28:00,
2013-05-13 12:33:00,59.2,31.6,29.97,NW,319,0.0,9.0,35,0.00,,OVC,0.00,1141.00,VWS V14.00,2013-05-13 16:33:00,
2013-05-13 12:38:00,59.7,29.0,29.98,NNE,18,6.0,9.0,31,0.00,,OVC,0.00,1121.00,VWS V14.00,2013-05-13 16:38:00,
2013-05-13 12:43:00,59.6,31.2,29.97,WNW,296,7.0,7.0,34,0.00,,OVC,0.00,1157.00,VWS V14.00,2013-05-13 16:43:00,
2013-05-13 12:48:00,59.8,29.9,29.97,WSW,238,3.0,9.0,32,0.00,,OVC,0.00,1167.00,VWS V14.00,2013-05-13 16:48:00,
2013-05-13 12:53:00,59.8,32.1,29.97,WNW,290,0.0,9.0,35,0.00,,OVC,0.00,1146.00,VWS V14.00,2013-05-13 16:53:00,
2013-05-13 12:58:00,59.5,28.9,29.97,NNW,339,1.0,5.0,31,0.00,,OVC,0.00,1169.00,VWS V14.00,2013-05-13 16:58:00,
2013-05-13 13:03:00,58.7,29.7,29.97,WSW,246,1.0,7.0,33,0.00,,OVC,0.00,1169.00,VWS V14.00,2013-05-13 17:03:00,
2013-05-13 13:08:00,58.2,30.0,29.97,SSW,202,0.0,7.0,34,0.00,,OVC,0.00,223.00,VWS V14.00,2013-05-13 17:08:00,
2013-05-13 13:14:00,57.5,30.1,29.97,SW,215,2.0,4.0,35,0.00,,OVC,0.00,262.00,VWS V14.00,2013-05-13 17:14:00,
2013-05-13 13:19:00,57.3,30.6,29.97,WNW,293,1.0,4.0,36,0.00,,OVC,0.00,225.00,VWS V14.00,2013-05-13 17:19:00,
2013-05-13 13:24:00,57.5,33.4,29.96,WNW,286,1.0,4.0,40,0.00,,OVC,0.00,227.00,VWS V14.00,2013-05-13 17:24:00,
2013-05-13 13:29:00,57.7,30.3,29.97,SSE,167,0.0,5.0,35,0.00,,OVC,0.00,1130.00,VWS V14.00,2013-05-13 17:29:00,
2013-05-13 13:34:00,58.1,30.6,29.96,NNE,14,8.0,8.0,35,0.00,,OVC,0.00,1099.00,VWS V14.00,2013-05-13 17:34:00,
2013-05-13 13:39:00,58.3,30.8,29.97,NW,306,1.0,9.0,35,0.00,,OVC,0.00,1060.00,VWS V14.00,2013-05-13 17:39:00,
2013-05-13 13:44:00,58.5,31.7,29.96,North,349,1.0,1.0,36,0.00,,OVC,0.00,1102.00,VWS V14.00,2013-05-13 17:44:00,
2013-05-13 13:49:00,58.7,31.1,29.97,WNW,296,8.0,11.0,35,0.00,,OVC,0.00,1111.00,VWS V14.00,2013-05-13 17:49:00,
2013-05-13 13:54:00,58.6,31.8,29.96,West,279,4.0,11.0,36,0.00,,OVC,0.00,1130.00,VWS V14.00,2013-05-13 17:54:00,
2013-05-13 13:59:00,58.8,30.5,29.96,WNW,295,2.0,7.0,34,0.00,,OVC,0.00,1107.00,VWS V14.00,2013-05-13 17:59:00,
2013-05-13 14:04:00,59.4,31.8,29.96,SW,221,0.0,7.0,35,0.00,,OVC,0.00,248.00,VWS V14.00,2013-05-13 18:04:00,
2013-05-13 14:10:00,59.3,30.2,29.96,WSW,243,2.0,7.0,33,0.00,,OVC,0.00,1204.00,VWS V14.00,2013-05-13 18:10:00,
2013-05-13 14:15:00,59.4,31.0,29.95,NE,49,2.0,6.0,34,0.00,,OVC,0.00,1107.00,VWS V14.00,2013-05-13 18:15:00,
2013-05-13 14:20:00,59.8,32.8,29.95,West,268,0.0,7.0,36,0.00,,OVC,0.00,192.00,VWS V14.00,2013-05-13 18:20:00,
2013-05-13 14:25:00,59.5,30.4,29.95,West,266,1.0,8.0,33,0.00,,OVC,0.00,1148.00,VWS V14.00,2013-05-13 18:25:00,
2013-05-13 14:30:00,59.4,31.8,29.95,NNW,335,1.0,5.0,35,0.00,,OVC,0.00,1086.00,VWS V14.00,2013-05-13 18:30:00,
2013-05-13 14:35:00,59.2,30.9,29.95,WNW,299,0.0,6.0,34,0.00,,OVC,0.00,1041.00,VWS V14.00,2013-05-13 18:35:00,
2013-05-13 14:40:00,59.2,29.4,29.95,NNW,330,1.0,6.0,32,0.00,,OVC,0.00,1034.00,VWS V14.00,2013-05-13 18:40:00,
2013-05-13 14:45:00,59.6,30.5,29.95,NNW,331,0.0,7.0,33,0.00,,OVC,0.00,962.00,VWS V14.00,2013-05-13 18:45:00,
2013-05-13 14:50:00,59.9,31.5,29.95,WNW,291,2.0,7.0,34,0.00,,OVC,0.00,1014.00,VWS V14.00,2013-05-13 18:50:00,
2013-05-13 14:55:00,60.3,32.6,29.95,South,170,1.0,7.0,35,0.00,,OVC,0.00,977.00,VWS V14.00,2013-05-13 18:55:00,
2013-05-13 15:00:00,61.2,31.9,29.94,North,350,0.0,5.0,33,0.00,,OVC,0.00,142.00,VWS V14.00,2013-05-13 19:00:00,
2013-05-13 15:05:00,61.0,32.5,29.94,WNW,290,0.0,5.0,34,0.00,,OVC,0.00,162.00,VWS V14.00,2013-05-13 19:05:00,
2013-05-13 15:10:00,60.2,29.5,29.94,North,5,1.0,6.0,31,0.00,,OVC,0.00,199.00,VWS V14.00,2013-05-13 19:10:00,
2013-05-13 15:16:00,59.4,29.6,29.94,West,275,0.0,2.0,32,0.00,,OVC,0.00,188.00,VWS V14.00,2013-05-13 19:16:00,
2013-05-13 15:21:00,59.1,30.8,29.94,South,174,0.0,11.0,34,0.00,,OVC,0.00,327.00,VWS V14.00,2013-05-13 19:21:00,
2013-05-13 15:26:00,59.1,30.8,29.94,South,186,2.0,11.0,34,0.00,,OVC,0.00,1088.00,VWS V14.00,2013-05-13 19:26:00,
2013-05-13 15:31:00,59.5,31.1,29.94,SW,231,3.0,7.0,34,0.00,,OVC,0.00,932.00,VWS V14.00,2013-05-13 19:31:00,
2013-05-13 15:36:00,60.1,32.4,29.94,SW,220,0.0,7.0,35,0.00,,OVC,0.00,844.00,VWS V14.00,2013-05-13 19:36:00,
2013-05-13 15:41:00,60.7,29.9,29.93,WNW,287,5.0,7.0,31,0.00,,OVC,0.00,888.00,VWS V14.00,2013-05-13 19:41:00,
2013-05-13 15:46:00,60.5,30.5,29.93,WNW,283,0.0,5.0,32,0.00,,OVC,0.00,304.00,VWS V14.00,2013-05-13 19:46:00,
2013-05-13 15:51:00,60.5,31.3,29.93,NW,313,0.0,9.0,33,0.00,,OVC,0.00,163.00,VWS V14.00,2013-05-13 19:51:00,
2013-05-13 15:56:00,60.2,31.0,29.93,NW,306,1.0,9.0,33,0.00,,OVC,0.00,234.00,VWS V14.00,2013-05-13 19:56:00,
2013-05-13 16:01:00,59.7,29.8,29.93,West,279,0.0,5.0,32,0.00,,OVC,0.00,200.00,VWS V14.00,2013-05-13 20:01:00,
2013-05-13 16:07:00,59.4,29.6,29.93,West,270,1.0,6.0,32,0.00,,OVC,0.00,204.00,VWS V14.00,2013-05-13 20:07:00,
2013-05-13 16:12:00,59.4,31.0,29.93,NE,50,0.0,6.0,34,0.00,,OVC,0.00,204.00,VWS V14.00,2013-05-13 20:12:00,
2013-05-13 16:17:00,59.1,30.0,29.93,NW,310,1.0,4.0,33,0.00,,OVC,0.00,149.00,VWS V14.00,2013-05-13 20:17:00,
2013-05-13 16:22:00,58.8,29.8,29.93,WNW,299,0.0,4.0,33,0.00,,OVC,0.00,278.00,VWS V14.00,2013-05-13 20:22:00,
2013-05-13 16:27:00,59.0,31.4,29.93,SW,215,0.0,4.0,35,0.00,,OVC,0.00,162.00,VWS V14.00,2013-05-13 20:27:00,
2013-05-13 16:32:00,59.2,30.9,29.92,North,355,0.0,5.0,34,0.00,,OVC,0.00,123.00,VWS V14.00,2013-05-13 20:32:00,
2013-05-13 16:37:00,59.5,31.1,29.93,WSW,238,0.0,6.0,34,0.00,,OVC,0.00,91.00,VWS V14.00,2013-05-13 20:37:00,
2013-05-13 16:42:00,59.5,30.4,29.93,North,355,1.0,6.0,33,0.00,,OVC,0.00,120.00,VWS V14.00,2013-05-13 20:42:00,
2013-05-13 16:47:00,59.2,30.1,29.92,NNE,27,0.0,4.0,33,0.00,,OVC,0.00,160.00,VWS V14.00,2013-05-13 20:47:00,
2013-05-13 16:53:00,59.1,28.5,29.92,NNE,28,1.0,5.0,31,0.00,,OVC,0.00,199.00,VWS V14.00,2013-05-13 20:53:00,
2013-05-13 16:58:00,59.3,30.2,29.92,NNW,343,0.0,5.0,33,0.00,,OVC,0.00,144.00,VWS V14.00,2013-05-13 20:58:00,
2013-05-13 17:03:00,59.4,28.0,29.92,North,5,1.0,11.0,30,0.00,,OVC,0.00,183.00,VWS V14.00,2013-05-13 21:03:00,
2013-05-13 17:08:00,59.5,28.1,29.92,WNW,298,1.0,11.0,30,0.00,,OVC,0.00,148.00,VWS V14.00,2013-05-13 21:08:00,
2013-05-13 17:13:00,59.7,29.0,29.92,SSW,207,0.0,1.0,31,0.00,,OVC,0.00,121.00,VWS V14.00,2013-05-13 21:13:00,
2013-05-13 17:18:00,59.8,28.3,29.92,West,273,5.0,7.0,30,0.00,,OVC,0.00,158.00,VWS V14.00,2013-05-13 21:18:00,
2013-05-13 17:23:00,59.6,26.5,29.92,WNW,301,0.0,9.0,28,0.00,,OVC,0.00,114.00,VWS V14.00,2013-05-13 21:23:00,
2013-05-13 17:28:00,59.4,28.0,29.92,WNW,298,4.0,5.0,30,0.00,,OVC,0.00,74.00,VWS V14.00,2013-05-13 21:28:00,
2013-05-13 17:33:00,59.0,28.4,29.92,NE,49,1.0,5.0,31,0.00,,OVC,0.00,97.00,VWS V14.00,2013-05-13 21:33:00,
2013-05-13 17:39:00,58.7,27.4,29.92,NNE,19,0.0,7.0,30,0.00,,OVC,0.00,265.00,VWS V14.00,2013-05-13 21:39:00,
2013-05-13 17:44:00,58.6,28.1,29.92,SSE,147,1.0,6.0,31,0.00,,OVC,0.00,323.00,VWS V14.00,2013-05-13 21:44:00,
2013-05-13 17:49:00,58.6,28.9,29.92,NW,312,0.0,8.0,32,0.00,,OVC,0.00,58.00,VWS V14.00,2013-05-13 21:49:00,
2013-05-13 17:54:00,58.7,28.9,29.92,NNW,346,5.0,8.0,32,0.00,,OVC,0.00,62.00,VWS V14.00,2013-05-13 21:54:00,
2013-05-13 17:59:00,58.6,28.1,29.92,NE,37,2.0,5.0,31,0.00,,OVC,0.00,109.00,VWS V14.00,2013-05-13 21:59:00,
2013-05-13 18:04:00,58.2,27.7,29.92,NNW,333,4.0,5.0,31,0.00,,OVC,0.00,58.00,VWS V14.00,2013-05-13 22:04:00,
2013-05-13 18:09:00,58.1,29.2,29.92,North,360,4.0,6.0,33,0.00,,OVC,0.00,69.00,VWS V14.00,2013-05-13 22:09:00,
2013-05-13 18:14:00,57.9,28.2,29.92,WNW,286,0.0,4.0,32,0.00,,OVC,0.00,47.00,VWS V14.00,2013-05-13 22:14:00,
2013-05-13 18:19:00,57.8,27.4,29.93,NW,306,1.0,8.0,31,0.00,,OVC,0.00,69.00,VWS V14.00,2013-05-13 22:19:00,
2013-05-13 18:24:00,57.7,28.1,29.92,NNW,348,1.0,8.0,32,0.00,,OVC,0.00,54.00,VWS V14.00,2013-05-13 22:24:00,
2013-05-13 18:30:00,57.6,28.7,29.92,NNE,23,0.0,2.0,33,0.00,,OVC,0.00,40.00,VWS V14.00,2013-05-13 22:30:00,
2013-05-13 18:35:00,57.6,28.7,29.92,NE,39,0.0,7.0,33,0.00,,OVC,0.00,39.00,VWS V14.00,2013-05-13 22:35:00,
2013-05-13 18:40:00,57.5,28.6,29.92,WNW,283,0.0,7.0,33,0.00,,OVC,0.00,37.00,VWS V14.00,2013-05-13 22:40:00,
2013-05-13 18:45:00,57.5,29.4,29.93,NE,38,2.0,2.0,34,0.00,,OVC,0.00,35.00,VWS V14.00,2013-05-13 22:45:00,
2013-05-13 18:50:00,57.4,28.5,29.93,NNW,347,0.0,6.0,33,0.00,,OVC,0.00,33.00,VWS V14.00,2013-05-13 22:50:00,
2013-05-13 18:55:00,57.3,29.2,29.93,NNW,329,0.0,6.0,34,0.00,,OVC,0.00,32.00,VWS V14.00,2013-05-13 22:55:00,
2013-05-13 19:00:00,57.2,28.4,29.93,East,79,1.0,3.0,33,0.00,,OVC,0.00,30.00,VWS V14.00,2013-05-13 23:00:00,
2013-05-13 19:05:00,57.1,29.0,29.93,ENE,64,3.0,3.0,34,0.00,,OVC,0.00,26.00,VWS V14.00,2013-05-13 23:05:00,
2013-05-13 19:10:00,56.9,28.8,29.93,NE,34,0.0,6.0,34,0.00,,OVC,0.00,25.00,VWS V14.00,2013-05-13 23:10:00,
2013-05-13 19:15:00,56.7,27.9,29.93,NNE,21,0.0,6.0,33,0.00,,OVC,0.00,23.00,VWS V14.00,2013-05-13 23:15:00,
2013-05-13 19:21:00,56.6,28.6,29.94,NE,36,0.0,6.0,34,0.00,,OVC,0.00,21.00,VWS V14.00,2013-05-13 23:21:00,
2013-05-13 19:26:00,56.5,27.8,29.94,North,5,2.0,6.0,33,0.00,,OVC,0.00,19.00,VWS V14.00,2013-05-13 23:26:00,
2013-05-13 19:31:00,56.3,29.0,29.94,East,92,0.0,3.0,35,0.00,,OVC,0.00,18.00,VWS V14.00,2013-05-13 23:31:00,
2013-05-13 19:36:00,56.1,28.1,29.94,NNE,23,4.0,8.0,34,0.00,,OVC,0.00,14.00,VWS V14.00,2013-05-13 23:36:00,
2013-05-13 19:41:00,56.0,28.8,29.94,NW,319,1.0,8.0,35,0.00,,OVC,0.00,12.00,VWS V14.00,2013-05-13 23:41:00,
2013-05-13 19:46:00,55.8,27.9,29.94,NW,315,0.0,3.0,34,0.00,,OVC,0.00,11.00,VWS V14.00,2013-05-13 23:46:00,
2013-05-13 19:51:00,55.7,28.5,29.95,NNE,21,2.0,4.0,35,0.00,,OVC,0.00,9.00,VWS V14.00,2013-05-13 23:51:00,
2013-05-13 19:56:00,55.5,28.3,29.95,NE,41,1.0,4.0,35,0.00,,OVC,0.00,7.00,VWS V14.00,2013-05-13 23:56:00,
2013-05-13 20:01:00,55.4,28.9,29.95,West,277,0.0,4.0,36,0.00,,OVC,0.00,5.00,VWS V14.00,2013-05-14 00:01:00,
2013-05-13 20:07:00,55.3,28.8,29.96,NE,40,1.0,4.0,36,0.00,,OVC,0.00,0.00,VWS V14.00,2013-05-14 00:07:00,
2013-05-13 20:12:00,55.1,29.3,29.96,NE,34,0.0,4.0,37,0.00,,OVC,0.00,0.00,VWS V14.00,2013-05-14 00:12:00,
2013-05-13 20:17:00,54.9,28.5,29.96,NNE,26,0.0,2.0,36,0.00,,OVC,0.00,0.00,VWS V14.00,2013-05-14 00:17:00,
2013-05-13 20:22:00,54.8,29.0,29.96,NNE,26,0.0,2.0,37,0.00,,OVC,0.00,0.00,VWS V14.00,2013-05-14 00:22:00,
2013-05-13 20:27:00,54.5,28.8,29.96,North,360,0.0,2.0,37,0.00,,OVC,0.00,0.00,VWS V14.00,2013-05-14 00:27:00,
2013-05-13 20:32:00,54.3,29.2,29.97,North,360,0.0,0.0,38,0.00,,OVC,0.00,0.00,VWS V14.00,2013-05-14 00:32:00,
2013-05-13 20:37:00,54.1,29.1,29.97,North,360,0.0,1.0,38,0.00,,OVC,0.00,0.00,VWS V14.00,2013-05-14 00:37:00,
2013-05-13 20:42:00,53.9,29.5,29.97,North,360,0.0,1.0,39,0.00,,OVC,0.00,0.00,VWS V14.00,2013-05-14 00:42:00,
2013-05-13 20:47:00,53.8,30.1,29.97,North,360,0.0,0.0,40,0.00,,OVC,0.00,0.00,VWS V14.00,2013-05-14 00:47:00,
2013-05-13 20:52:00,53.5,31.6,29.98,North,360,0.0,0.0,43,0.00,,OVC,0.00,0.00,VWS V14.00,2013-05-14 00:52:00,
2013-05-13 20:58:00,53.2,30.1,29.98,North,360,0.0,0.0,41,0.00,,OVC,0.00,0.00,VWS V14.00,2013-05-14 00:58:00,
2013-05-13 21:03:00,53.0,31.1,29.98,North,360,0.0,0.0,43,0.00,,OVC,0.00,0.00,VWS V14.00,2013-05-14 01:03:00,
2013-05-13 21:08:00,52.7,32.0,29.99,North,360,0.0,0.0,45,0.00,,OVC,0.00,0.00,VWS V14.00,2013-05-14 01:08:00,
2013-05-13 21:13:00,52.4,32.2,29.99,North,360,0.0,0.0,46,0.00,,OVC,0.00,0.00,VWS V14.00,2013-05-14 01:13:00,
2013-05-13 21:18:00,52.0,32.4,29.99,North,360,0.0,0.0,47,0.00,,OVC,0.00,0.00,VWS V14.00,2013-05-14 01:18:00,
2013-05-13 21:23:00,51.5,33.5,30.00,North,360,0.0,0.0,50,0.00,,OVC,0.00,0.00,VWS V14.00,2013-05-14 01:23:00,
2013-05-13 21:28:00,50.8,33.3,30.00,North,360,0.0,0.0,51,0.00,,OVC,0.00,0.00,VWS V14.00,2013-05-14 01:28:00,
2013-05-13 21:33:00,49.9,33.5,30.00,North,360,0.0,0.0,53,0.00,,OVC,0.00,0.00,VWS V14.00,2013-05-14 01:33:00,
2013-05-13 21:38:00,49.1,33.7,30.01,North,360,0.0,0.0,55,0.00,,OVC,0.00,0.00,VWS V14.00,2013-05-14 01:38:00,
2013-05-13 21:43:00,48.2,33.7,30.01,North,360,0.0,0.0,57,0.00,,OVC,0.00,0.00,VWS V14.00,2013-05-14 01:43:00,
2013-05-13 21:48:00,47.5,33.5,30.01,North,360,0.0,0.0,58,0.00,,OVC,0.00,0.00,VWS V14.00,2013-05-14 01:48:00,
2013-05-13 21:53:00,46.9,34.2,30.01,North,360,0.0,0.0,61,0.00,,OVC,0.00,0.00,VWS V14.00,2013-05-14 01:53:00,
2013-05-13 21:58:00,46.4,34.1,30.01,North,360,0.0,0.0,62,0.00,,OVC,0.00,0.00,VWS V14.00,2013-05-14 01:58:00,
2013-05-13 22:03:00,46.1,34.2,30.02,North,360,0.0,0.0,63,0.00,,OVC,0.00,0.00,VWS V14.00,2013-05-14 02:03:00,
2013-05-13 22:08:00,45.7,35.0,30.02,North,360,0.0,0.0,66,0.00,,OVC,0.00,0.00,VWS V14.00,2013-05-14 02:08:00,
2013-05-13 22:14:00,45.3,34.6,30.02,North,360,0.0,0.0,66,0.00,,OVC,0.00,0.00,VWS V14.00,2013-05-14 02:14:00,
2013-05-13 22:19:00,45.0,34.7,30.02,North,360,0.0,0.0,67,0.00,,OVC,0.00,0.00,VWS V14.00,2013-05-14 02:19:00,
2013-05-13 22:24:00,44.6,35.1,30.02,North,360,0.0,0.0,69,0.00,,OVC,0.00,0.00,VWS V14.00,2013-05-14 02:24:00,
2013-05-13 22:29:00,44.3,35.2,30.03,North,360,0.0,0.0,70,0.00,,OVC,0.00,0.00,VWS V14.00,2013-05-14 02:29:00,
2013-05-13 22:34:00,44.0,35.2,30.02,North,360,0.0,0.0,71,0.00,,OVC,0.00,0.00,VWS V14.00,2013-05-14 02:34:00,
2013-05-13 22:39:00,43.7,34.9,30.03,North,360,0.0,0.0,71,0.00,,OVC,0.00,0.00,VWS V14.00,2013-05-14 02:39:00,
2013-05-13 22:44:00,43.4,35.3,30.03,North,360,0.0,0.0,73,0.00,,OVC,0.00,0.00,VWS V14.00,2013-05-14 02:44:00,
2013-05-13 22:49:00,43.2,35.1,30.03,North,360,0.0,0.0,73,0.00,,OVC,0.00,0.00,VWS V14.00,2013-05-14 02:49:00,
2013-05-13 22:54:00,43.0,35.3,30.03,North,360,0.0,0.0,74,0.00,,OVC,0.00,0.00,VWS V14.00,2013-05-14 02:54:00,
2013-05-13 22:59:00,42.7,35.0,30.03,North,360,0.0,0.0,74,0.00,,OVC,0.00,0.00,VWS V14.00,2013-05-14 02:59:00,
2013-05-13 23:04:00,42.5,35.2,30.03,North,360,0.0,0.0,75,0.00,,OVC,0.00,0.00,VWS V14.00,2013-05-14 03:04:00,
2013-05-13 23:10:00,42.3,35.0,30.03,North,360,0.0,0.0,75,0.00,,OVC,0.00,0.00,VWS V14.00,2013-05-14 03:10:00,
2013-05-13 23:15:00,42.1,35.1,30.03,North,360,0.0,0.0,76,0.00,,OVC,0.00,0.00,VWS V14.00,2013-05-14 03:15:00,
2013-05-13 23:20:00,41.9,34.6,30.04,North,360,0.0,0.0,75,0.00,,OVC,0.00,0.00,VWS V14.00,2013-05-14 03:20:00,
2013-05-13 23:25:00,41.7,34.7,30.04,North,360,0.0,0.0,76,0.00,,OVC,0.00,0.00,VWS V14.00,2013-05-14 03:25:00,
2013-05-13 23:30:00,41.6,34.9,30.04,North,360,0.0,0.0,77,0.00,,OVC,0.00,0.00,VWS V14.00,2013-05-14 03:30:00,
2013-05-13 23:35:00,41.4,34.4,30.04,North,360,0.0,0.0,76,0.00,,OVC,0.00,0.00,VWS V14.00,2013-05-14 03:35:00,
2013-05-13 23:40:00,41.2,34.2,30.04,North,360,0.0,0.0,76,0.00,,OVC,0.00,0.00,VWS V14.00,2013-05-14 03:40:00,
2013-05-13 23:45:00,41.0,34.3,30.05,North,360,0.0,0.0,77,0.00,,OVC,0.00,0.00,VWS V14.00,2013-05-14 03:45:00,
2013-05-13 23:50:00,40.9,34.6,30.05,North,360,0.0,0.0,78,0.00,,OVC,0.00,0.00,VWS V14.00,2013-05-14 03:50:00,
2013-05-13 23:55:00,40.7,34.4,30.05,North,360,0.0,0.0,78,0.00,,OVC,0.00,0.00,VWS V14.00,2013-05-14 03:55:00,